Time;durP1;ratioP1;P1;durP2;ratioP2;P2;SDS_P1;SDS_P2;PMS_P1;PMS_P2;Temp;Humidity;BMP_temperature;BMP_pressure;BME280_temperature;BME280_humidity;BME280_pressure;Samples;Min_cycle;Max_cycle;Signal;HPM_P1;HPM_P2
2024/02/21 00:15:38;;;;;;;9.50;8.70;;;;;;;-8.34;100.00;100898.78;5080103;28;20051;-72
2024/02/21 00:18:05;;;;;;;8.35;7.55;;;;;;;-8.23;100.00;100893.25;5046703;28;20032;-72
2024/02/21 00:20:32;;;;;;;13.00;11.68;;;;;;;-8.22;100.00;100895.00;5028338;28;20044;-72
2024/02/21 00:22:59;;;;;;;6.38;5.88;;;;;;;-8.17;100.00;100902.75;5080284;28;20086;-73
2024/02/21 00:25:26;;;;;;;9.27;8.38;;;;;;;-8.14;100.00;100900.31;5083828;28;20051;-77
2024/02/21 00:27:53;;;;;;;10.88;7.40;;;;;;;-8.18;100.00;100898.50;5071971;28;20044;-72
2024/02/21 00:30:19;;;;;;;7.78;7.10;;;;;;;-8.18;100.00;100885.84;5068088;28;20029;-72
2024/02/21 00:32:45;;;;;;;10.40;7.70;;;;;;;-8.20;100.00;100885.78;5061417;28;20099;-72
2024/02/21 00:35:12;;;;;;;12.10;10.38;;;;;;;-8.24;100.00;100881.41;5061777;28;20055;-74
2024/02/21 00:37:38;;;;;;;11.70;10.43;;;;;;;-8.25;100.00;100884.75;5077580;28;20122;-73
2024/02/21 00:40:05;;;;;;;9.95;6.68;;;;;;;-8.24;100.00;100890.66;5081237;28;20037;-73
2024/02/21 00:42:31;;;;;;;14.80;9.77;;;;;;;-8.20;100.00;100879.84;5064655;28;20035;-72
2024/02/21 00:44:57;;;;;;;7.30;6.55;;;;;;;-8.21;100.00;100885.75;5077468;28;20036;-73
2024/02/21 00:47:23;;;;;;;9.15;8.27;;;;;;;-8.22;100.00;100866.28;5081111;28;20047;-74
2024/02/21 00:49:49;;;;;;;8.95;8.15;;;;;;;-8.12;100.00;100869.22;5077137;28;20135;-73
2024/02/21 00:52:15;;;;;;;10.93;9.73;;;;;;;-8.09;100.00;100871.84;5061838;28;20040;-72
2024/02/21 00:54:41;;;;;;;9.15;8.25;;;;;;;-8.09;100.00;100865.91;5075444;28;20036;-73
2024/02/21 00:57:08;;;;;;;9.25;8.45;;;;;;;-8.07;100.00;100867.69;5079351;28;20477;-73
2024/02/21 00:59:34;;;;;;;9.65;8.68;;;;;;;-8.07;100.00;100870.22;5079831;28;20056;-72
2024/02/21 01:02:00;;;;;;;10.07;8.07;;;;;;;-8.06;100.00;100871.09;5081831;28;20045;-73
2024/02/21 01:04:26;;;;;;;8.18;5.72;;;;;;;-8.06;100.00;100860.97;5075255;28;20078;-73
2024/02/21 01:06:52;;;;;;;9.10;8.18;;;;;;;-8.02;100.00;100857.72;5081108;28;20057;-73
2024/02/21 01:09:18;;;;;;;6.72;6.22;;;;;;;-8.06;100.00;100855.88;5063326;28;20575;-73
2024/02/21 01:11:45;;;;;;;6.95;6.35;;;;;;;-8.00;100.00;100845.97;5078677;28;20033;-73
2024/02/21 01:14:11;;;;;;;11.00;5.45;;;;;;;-7.98;100.00;100851.94;5080287;28;20047;-73
2024/02/21 01:16:37;;;;;;;11.20;8.75;;;;;;;-7.99;100.00;100853.63;5074864;28;20087;-73
2024/02/21 01:19:03;;;;;;;7.53;6.93;;;;;;;-7.91;100.00;100844.63;5063297;28;20040;-73
2024/02/21 01:21:29;;;;;;;7.53;6.63;;;;;;;-7.89;100.00;100844.69;5081893;28;20047;-73
2024/02/21 01:23:55;;;;;;;7.28;5.85;;;;;;;-7.84;100.00;100843.16;5076440;28;20051;-72
2024/02/21 01:26:22;;;;;;;7.50;6.70;;;;;;;-7.84;100.00;100843.16;5072501;28;20044;-72
2024/02/21 01:28:48;;;;;;;10.35;8.13;;;;;;;-7.78;100.00;100829.81;5075358;28;20512;-73
2024/02/21 01:31:15;;;;;;;10.52;8.50;;;;;;;-7.75;100.00;100833.34;5079078;28;20071;-73
2024/02/21 01:33:41;;;;;;;6.28;5.75;;;;;;;-7.71;100.00;100832.63;5075896;28;20123;-72
2024/02/21 01:36:07;;;;;;;10.10;7.80;;;;;;;-7.64;100.00;100836.22;5078858;28;20135;-73
2024/02/21 01:38:33;;;;;;;8.52;7.40;;;;;;;-7.66;100.00;100832.81;5081704;28;20043;-72
2024/02/21 01:40:59;;;;;;;10.43;9.20;;;;;;;-7.64;100.00;100829.50;5060252;28;20093;-72
2024/02/21 01:43:25;;;;;;;8.85;8.05;;;;;;;-7.60;100.00;100827.94;5061991;28;20085;-74
2024/02/21 01:45:55;;;;;;;10.75;9.70;;;;;;;-7.55;100.00;100821.31;5073854;28;20512;-72
2024/02/21 01:48:24;;;;;;;10.00;9.05;;;;;;;-7.53;100.00;100820.59;5042887;28;20485;-73
2024/02/21 01:50:51;;;;;;;8.38;7.63;;;;;;;-7.50;100.00;100809.69;5063525;28;20194;-72
2024/02/21 01:53:28;;;;;;;5.63;4.72;;;;;;;-7.49;100.00;100812.25;5058127;28;20048;-72
2024/02/21 01:55:55;;;;;;;7.68;6.95;;;;;;;-7.48;100.00;100811.44;5043353;28;20032;-72
2024/02/21 01:58:21;;;;;;;8.80;7.50;;;;;;;-7.43;100.00;100807.38;5046097;28;20048;-73
2024/02/21 02:00:47;;;;;;;9.30;8.40;;;;;;;-7.39;100.00;100799.06;5075559;28;20063;-72
2024/02/21 02:03:16;;;;;;;9.55;8.25;;;;;;;-7.36;100.00;100797.47;5060299;28;20046;-72
2024/02/21 02:05:44;;;;;;;8.98;8.07;;;;;;;-7.29;100.00;100809.47;5080225;28;20036;-72
2024/02/21 02:08:10;;;;;;;6.95;5.72;;;;;;;-7.27;100.00;100807.88;5044210;28;20052;-72
2024/02/21 02:10:37;;;;;;;8.95;7.32;;;;;;;-7.23;100.00;100805.47;5080165;28;20501;-71
2024/02/21 02:13:04;;;;;;;8.15;7.45;;;;;;;-7.24;100.00;100806.31;5076299;28;20052;-73
2024/02/21 02:15:39;;;;;;;11.23;9.77;;;;;;;-7.17;100.00;100807.38;5058095;28;20079;-72
2024/02/21 02:18:06;;;;;;;8.13;7.43;;;;;;;-7.17;100.00;100802.28;5053855;28;20499;-72
2024/02/21 02:20:32;;;;;;;11.52;7.68;;;;;;;-7.16;100.00;100804.84;5044223;28;20039;-72
2024/02/21 02:23:11;;;;;;;10.68;9.60;;;;;;;-7.16;100.00;100801.44;5076743;28;20743;-73
2024/02/21 02:25:37;;;;;;;8.90;7.32;;;;;;;-7.10;100.00;100796.59;5061009;28;20183;-72
2024/02/21 02:28:05;;;;;;;7.60;6.97;;;;;;;-7.07;100.00;100807.69;5082354;28;20067;-73
2024/02/21 02:30:36;;;;;;;7.20;6.55;;;;;;;-7.07;100.00;100802.63;5080983;28;20033;-72
2024/02/21 02:33:05;;;;;;;7.03;6.45;;;;;;;-7.05;100.00;100793.38;5044434;28;20041;-72
2024/02/21 02:35:32;;;;;;;5.82;5.43;;;;;;;-7.02;100.00;100795.13;5048765;28;20068;-73
2024/02/21 02:37:58;;;;;;;10.68;9.68;;;;;;;-7.04;100.00;100802.72;5046941;28;20049;-71
2024/02/21 02:40:24;;;;;;;6.70;6.10;;;;;;;-6.99;100.00;100800.31;5083069;28;20031;-72
2024/02/21 02:42:51;;;;;;;12.13;9.75;;;;;;;-6.96;100.00;100800.41;5063082;28;20612;-76
2024/02/21 02:45:17;;;;;;;9.05;8.25;;;;;;;-6.96;100.00;100800.41;5080580;28;20135;-73
2024/02/21 02:47:47;;;;;;;8.50;7.80;;;;;;;-6.95;100.00;100797.91;5061232;28;20051;-73
2024/02/21 02:50:13;;;;;;;9.95;9.00;;;;;;;-6.92;100.00;100794.59;5082285;28;20067;-72
2024/02/21 02:52:39;;;;;;;6.70;6.05;;;;;;;-6.89;100.00;100805.72;5066422;28;20059;-74
2024/02/21 02:55:06;;;;;;;7.50;6.80;;;;;;;-6.85;100.00;100788.91;5081247;28;20059;-73
2024/02/21 02:57:32;;;;;;;8.20;7.40;;;;;;;-6.83;100.00;100799.94;5080765;28;20033;-72
2024/02/21 02:59:58;;;;;;;8.40;6.18;;;;;;;-6.81;100.00;100800.00;5063856;28;20039;-73
2024/02/21 03:02:24;;;;;;;8.45;7.72;;;;;;;-6.79;100.00;100799.22;5079980;28;20048;-73
2024/02/21 03:04:50;;;;;;;10.45;9.30;;;;;;;-6.79;100.00;100795.81;5065797;28;20429;-74
2024/02/21 03:07:16;;;;;;;8.80;8.00;;;;;;;-6.77;100.00;100802.66;5061476;28;20090;-74
2024/02/21 03:09:42;;;;;;;9.30;8.00;;;;;;;-6.74;100.00;100799.38;5081278;28;20076;-73
2024/02/21 03:12:09;;;;;;;10.43;9.43;;;;;;;-6.75;100.00;100787.50;5064218;28;20040;-74
2024/02/21 03:14:35;;;;;;;9.55;7.70;;;;;;;-6.73;100.00;100794.34;5079151;28;20045;-74
2024/02/21 03:17:02;;;;;;;8.13;7.40;;;;;;;-6.70;100.00;100791.88;5064987;28;20067;-74
2024/02/21 03:19:28;;;;;;;9.50;7.82;;;;;;;-6.70;100.00;100784.25;5084283;28;20078;-74
2024/02/21 03:21:54;;;;;;;8.93;8.02;;;;;;;-6.69;100.00;100786.00;5074101;28;20120;-72
2024/02/21 03:24:20;;;;;;;8.95;8.07;;;;;;;-6.67;100.00;100786.03;5081344;28;20054;-73
2024/02/21 03:26:50;;;;;;;10.23;7.60;;;;;;;-6.66;100.00;100777.59;5078547;28;20143;-75
2024/02/21 03:29:17;;;;;;;9.43;8.63;;;;;;;-6.67;100.00;100776.72;5081964;28;20032;-74
2024/02/21 03:31:44;;;;;;;7.70;7.00;;;;;;;-6.62;100.00;100787.91;5067203;28;20508;-74
2024/02/21 03:34:11;;;;;;;8.52;7.78;;;;;;;-6.58;100.00;100778.69;5082397;28;20108;-74
2024/02/21 03:36:37;;;;;;;8.35;5.68;;;;;;;-6.60;100.00;100773.56;5043758;28;20527;-74
2024/02/21 03:39:03;;;;;;;7.90;7.05;;;;;;;-6.56;100.00;100774.50;5079258;28;20503;-74
2024/02/21 03:41:29;;;;;;;6.82;6.32;;;;;;;-6.53;100.00;100783.09;5077644;28;20454;-74
2024/02/21 03:43:56;;;;;;;14.90;6.07;;;;;;;-6.51;100.00;100783.13;5048454;28;20044;-73
2024/02/21 03:46:23;;;;;;;11.07;5.38;;;;;;;-6.49;100.00;100777.28;5038813;28;20113;-74
2024/02/21 03:48:49;;;;;;;14.23;8.07;;;;;;;-6.48;100.00;100784.06;5049933;28;20052;-74
2024/02/21 03:51:15;;;;;;;8.73;7.82;;;;;;;-6.43;100.00;100779.97;5081967;28;20040;-73
2024/02/21 03:53:41;;;;;;;11.00;9.73;;;;;;;-6.46;100.00;100779.91;5080771;28;20073;-73
2024/02/21 03:56:07;;;;;;;8.30;7.50;;;;;;;-6.42;100.00;100781.72;5081437;28;20138;-74
2024/02/21 03:58:33;;;;;;;7.85;7.05;;;;;;;-6.42;100.00;100781.72;5060994;28;20633;-73
2024/02/21 04:01:00;;;;;;;7.65;6.90;;;;;;;-6.39;100.00;100780.94;5062136;28;20504;-73
2024/02/21 04:03:27;;;;;;;9.45;7.35;;;;;;;-6.38;100.00;100788.56;5061444;28;20024;-73
2024/02/21 04:05:53;;;;;;;9.55;8.35;;;;;;;-6.36;100.00;100797.13;5061864;28;20117;-73
2024/02/21 04:08:19;;;;;;;10.73;9.10;;;;;;;-6.36;100.00;100775.94;5083158;28;20047;-73
2024/02/21 04:10:45;;;;;;;8.23;7.43;;;;;;;-6.35;100.00;100786.13;5061449;28;20029;-73
2024/02/21 04:13:11;;;;;;;8.57;7.75;;;;;;;-6.30;100.00;100785.38;5081685;28;20038;-74
2024/02/21 04:15:37;;;;;;;8.10;7.28;;;;;;;-6.34;100.00;100777.69;5077750;28;20051;-73
2024/02/21 04:18:03;;;;;;;5.35;4.93;;;;;;;-6.30;100.00;100790.47;5064657;28;20040;-73
2024/02/21 04:20:30;;;;;;;5.90;5.40;;;;;;;-6.32;100.00;100785.38;5049042;28;20525;-74
2024/02/21 04:22:57;;;;;;;9.38;7.63;;;;;;;-6.29;100.00;100787.13;5061278;28;20101;-73
2024/02/21 04:25:22;;;;;;;7.15;6.45;;;;;;;-6.26;100.00;100790.59;5063964;28;20083;-72
2024/02/21 04:27:49;;;;;;;7.20;6.53;;;;;;;-6.26;100.00;100784.66;5079119;28;20178;-74
2024/02/21 04:30:15;;;;;;;7.07;6.47;;;;;;;-6.25;100.00;100791.47;5081299;28;20120;-74
2024/02/21 04:32:44;;;;;;;9.90;9.05;;;;;;;-6.22;100.00;100783.94;5041542;28;20028;-74
2024/02/21 04:35:10;;;;;;;11.63;10.52;;;;;;;-6.21;100.00;100791.59;5046180;28;20233;-75
2024/02/21 04:37:36;;;;;;;7.35;6.60;;;;;;;-6.20;100.00;100785.69;5062430;28;20056;-74
2024/02/21 04:40:04;;;;;;;9.93;7.60;;;;;;;-6.18;100.00;100794.19;5060819;28;20209;-73
2024/02/21 04:42:31;;;;;;;9.07;8.18;;;;;;;-6.16;100.00;100791.72;5088352;28;20032;-75
2024/02/21 04:44:57;;;;;;;11.00;9.98;;;;;;;-6.16;100.00;100786.63;5063829;28;20044;-74
2024/02/21 04:47:24;;;;;;;7.55;6.85;;;;;;;-6.14;100.00;100792.59;5083084;28;20028;-75
2024/02/21 04:49:51;;;;;;;11.60;8.90;;;;;;;-6.12;100.00;100783.38;5077616;28;20460;-73
2024/02/21 04:52:17;;;;;;;13.98;9.68;;;;;;;-6.11;100.00;100785.06;5082518;28;20036;-73
2024/02/21 04:54:43;;;;;;;9.30;8.23;;;;;;;-6.09;100.00;100780.91;5080646;28;20035;-74
2024/02/21 04:57:10;;;;;;;9.30;8.13;;;;;;;-6.07;100.00;100784.34;5074700;28;20057;-73
2024/02/21 04:59:36;;;;;;;10.38;8.18;;;;;;;-6.09;100.00;100780.91;5062868;28;20118;-73
2024/02/21 05:02:03;;;;;;;10.52;7.90;;;;;;;-6.03;100.00;100786.16;5078005;28;20515;-73
2024/02/21 05:04:29;;;;;;;9.68;8.70;;;;;;;-6.00;100.00;100796.38;5060365;28;20028;-73
2024/02/21 05:06:55;;;;;;;8.55;7.68;;;;;;;-6.02;100.00;100788.72;5058166;28;20041;-73
2024/02/21 05:09:21;;;;;;;18.65;14.18;;;;;;;-5.97;100.00;100788.84;5074971;28;20050;-73
2024/02/21 05:11:47;;;;;;;13.73;11.57;;;;;;;-6.00;100.00;100783.69;5058985;28;20048;-73
2024/02/21 05:14:13;;;;;;;10.05;8.98;;;;;;;-5.98;100.00;100789.66;5061255;28;20040;-72
2024/02/21 05:16:40;;;;;;;5.97;5.47;;;;;;;-5.92;100.00;100799.97;5011490;28;20428;-73
2024/02/21 05:19:06;;;;;;;13.10;8.75;;;;;;;-5.89;100.00;100795.00;5050331;28;20036;-73
2024/02/21 05:21:32;;;;;;;12.45;9.82;;;;;;;-5.89;100.00;100792.47;5055397;28;20041;-75
2024/02/21 05:23:59;;;;;;;7.60;7.00;;;;;;;-5.91;100.00;100782.25;5065254;28;20032;-73
2024/02/21 05:26:26;;;;;;;10.13;8.43;;;;;;;-5.89;100.00;100790.75;5066976;28;20075;-73
2024/02/21 05:28:53;;;;;;;13.30;11.90;;;;;;;-5.89;100.00;100793.28;5078205;28;20105;-73
2024/02/21 05:31:19;;;;;;;10.30;9.18;;;;;;;-5.86;100.00;100790.84;5047759;28;20100;-73
2024/02/21 05:33:46;;;;;;;13.93;9.18;;;;;;;-5.85;100.00;100791.66;5076272;28;20036;-73
2024/02/21 05:36:12;;;;;;;13.77;10.45;;;;;;;-5.85;100.00;100791.66;5074343;28;20072;-74
2024/02/21 05:38:38;;;;;;;15.73;11.45;;;;;;;-5.83;100.00;100793.44;5058223;28;20033;-73
2024/02/21 05:41:05;;;;;;;14.73;9.57;;;;;;;-5.78;100.00;100798.63;5060575;28;20053;-74
2024/02/21 05:43:31;;;;;;;12.10;9.20;;;;;;;-5.76;100.00;100788.53;5048489;28;20074;-74
2024/02/21 05:45:57;;;;;;;10.40;9.35;;;;;;;-5.77;100.00;100787.66;5052495;28;20459;-72
2024/02/21 05:48:23;;;;;;;11.40;8.40;;;;;;;-5.75;100.00;100786.00;5062221;28;20094;-74
2024/02/21 05:50:50;;;;;;;10.63;8.32;;;;;;;-5.77;100.00;100785.09;5044109;28;20049;-73
2024/02/21 05:53:16;;;;;;;9.25;7.55;;;;;;;-5.70;100.00;100784.44;5056799;28;20562;-74
2024/02/21 05:55:42;;;;;;;11.68;9.70;;;;;;;-5.71;100.00;100790.34;5052923;28;20120;-73
2024/02/21 05:58:11;;;;;;;10.77;8.80;;;;;;;-5.65;100.00;100794.72;5060642;28;20049;-75
2024/02/21 06:00:37;;;;;;;9.15;8.23;;;;;;;-5.68;100.00;100789.56;5045820;28;20116;-75
2024/02/21 06:03:04;;;;;;;10.05;8.10;;;;;;;-5.63;100.00;100780.38;5027579;28;20063;-75
2024/02/21 06:05:31;;;;;;;13.98;9.75;;;;;;;-5.63;100.00;100793.97;5059005;28;20693;-75
2024/02/21 06:07:58;;;;;;;10.48;9.23;;;;;;;-5.55;100.00;100795.00;5064143;28;20049;-76
2024/02/21 06:10:24;;;;;;;13.98;7.53;;;;;;;-5.53;100.00;100785.69;5064921;28;20098;-76
2024/02/21 06:12:50;;;;;;;18.17;15.65;;;;;;;-5.47;100.00;100790.97;5061660;28;20567;-75
2024/02/21 06:15:16;;;;;;;12.20;9.63;;;;;;;-5.51;100.00;100783.22;5058950;28;20068;-75
2024/02/21 06:17:42;;;;;;;11.77;9.10;;;;;;;-5.42;100.00;100784.28;5061974;28;20484;-75
2024/02/21 06:20:09;;;;;;;14.02;11.48;;;;;;;-5.23;100.00;100789.84;5062792;28;20127;-75
2024/02/21 06:22:35;;;;;;;9.32;6.40;;;;;;;-5.33;100.00;100783.63;5061271;28;20508;-74
2024/02/21 06:25:02;;;;;;;11.90;9.27;;;;;;;-5.41;100.00;100780.94;5074828;28;20128;-76
2024/02/21 06:27:30;;;;;;;14.70;10.63;;;;;;;-5.36;100.00;100781.88;5069109;28;20041;-76
2024/02/21 06:29:56;;;;;;;9.70;8.77;;;;;;;-5.30;100.00;100783.75;5062781;28;20086;-74
2024/02/21 06:32:23;;;;;;;8.20;7.35;;;;;;;-5.11;100.00;100779.94;5061619;28;20041;-75
2024/02/21 06:34:49;;;;;;;9.00;8.07;;;;;;;-5.23;100.00;100787.28;5056011;28;20072;-74
2024/02/21 06:37:15;;;;;;;14.82;10.93;;;;;;;-5.17;100.00;100779.78;5060264;28;20031;-75
2024/02/21 06:39:42;;;;;;;9.88;8.57;;;;;;;-5.14;100.00;100777.31;5054351;28;20069;-75
2024/02/21 06:42:09;;;;;;;12.20;10.93;;;;;;;-5.12;100.00;100788.38;5076895;28;20041;-76
2024/02/21 06:44:40;;;;;;;13.05;10.50;;;;;;;-5.15;100.00;100788.31;5059966;28;20083;-76
2024/02/21 06:47:07;;;;;;;14.23;11.60;;;;;;;-5.07;100.00;100791.91;5056513;28;20044;-75
2024/02/21 06:49:52;;;;;;;26.05;13.93;;;;;;;-5.03;100.00;100793.66;5051608;28;20061;-74
2024/02/21 06:52:20;;;;;;;12.02;10.82;;;;;;;-5.10;100.00;100791.81;5062122;28;20029;-74
2024/02/21 06:54:49;;;;;;;10.70;9.23;;;;;;;-5.10;100.00;100791.81;5063794;28;20041;-73
2024/02/21 06:57:16;;;;;;;13.77;11.13;;;;;;;-4.98;100.00;100792.97;5060124;28;20041;-76
2024/02/21 06:59:42;;;;;;;12.40;11.00;;;;;;;-4.98;100.00;100792.97;5062339;28;20037;-76
2024/02/21 07:02:08;;;;;;;9.73;8.80;;;;;;;-4.98;100.00;100781.94;5059618;28;20040;-76
2024/02/21 07:04:34;;;;;;;13.35;10.30;;;;;;;-4.91;100.00;100789.72;5051585;28;20059;-75
2024/02/21 07:07:00;;;;;;;10.65;9.55;;;;;;;-4.83;100.00;100788.22;5032798;28;20519;-74
2024/02/21 07:09:28;;;;;;;8.55;7.68;;;;;;;-142.02;100.00;61695.09;5049007;28;20056;-75
2024/02/21 07:11:54;;;;;;;9.18;8.25;;;;;;;-142.02;100.00;61695.09;5050390;28;20036;-76
2024/02/21 07:14:20;;;;;;;18.50;14.38;;;;;;;-142.02;100.00;61695.09;5070018;28;20512;-77
2024/02/21 07:16:47;;;;;;;11.45;10.18;;;;;;;-4.93;100.00;100775.22;5066116;28;20037;-76
2024/02/21 07:19:13;;;;;;;9.50;8.60;;;;;;;-4.95;100.00;100770.13;5056120;28;20032;-75
2024/02/21 07:21:41;;;;;;;11.55;10.23;;;;;;;-4.96;100.00;100776.03;5048538;28;20041;-75
2024/02/21 07:24:07;;;;;;;7.65;6.95;;;;;;;-4.81;100.00;100780.63;5066810;28;20028;-75
2024/02/21 07:26:33;;;;;;;10.85;8.25;;;;;;;-4.79;100.00;100773.84;5061065;28;20044;-76
2024/02/21 07:29:08;;;;;;;13.30;7.45;;;;;;;-4.73;100.00;100771.44;5030244;28;20068;-76
2024/02/21 07:31:44;;;;;;;9.10;7.05;;;;;;;-4.71;100.00;100767.22;5040278;28;20052;-76
2024/02/21 07:34:10;;;;;;;11.20;10.13;;;;;;;-4.71;100.00;100767.22;5054435;28;20032;-75
2024/02/21 07:36:39;;;;;;;10.48;8.50;;;;;;;-4.11;100.00;100757.66;5055674;28;20044;-76
2024/02/21 07:39:05;;;;;;;9.88;8.90;;;;;;;-142.02;100.00;61695.09;5058626;28;20055;-76
2024/02/21 07:41:31;;;;;;;10.40;8.10;;;;;;;-142.02;100.00;61695.09;5053809;28;20109;-77
2024/02/21 07:43:57;;;;;;;7.25;6.38;;;;;;;-4.39;100.00;100750.94;5018619;28;20360;-76
2024/02/21 07:46:24;;;;;;;6.60;5.97;;;;;;;-142.02;100.00;61695.09;5067043;28;20049;-78
2024/02/21 07:48:50;;;;;;;10.10;9.05;;;;;;;-142.02;100.00;61695.09;5052638;28;20029;-77
2024/02/21 07:51:18;;;;;;;9.30;8.40;;;;;;;-142.02;100.00;61695.09;5038248;28;20032;-77
2024/02/21 07:53:48;;;;;;;13.95;10.13;;;;;;;-142.02;100.00;61695.09;5059710;28;20066;-76
2024/02/21 07:56:15;;;;;;;9.07;7.17;;;;;;;-142.02;100.00;61695.09;5054622;28;20040;-75
2024/02/21 07:58:41;;;;;;;11.73;10.60;;;;;;;-142.02;100.00;61695.09;5039760;28;20040;-75
2024/02/21 08:01:08;;;;;;;14.13;12.32;;;;;;;-142.02;100.00;61695.09;5050069;28;20424;-75
2024/02/21 08:03:34;;;;;;;8.43;7.72;;;;;;;-2.49;100.00;100752.25;5051332;28;20127;-75
2024/02/21 08:06:01;;;;;;;11.52;9.32;;;;;;;-2.71;100.00;100776.66;5064284;28;20076;-76
2024/02/21 08:08:27;;;;;;;8.88;7.53;;;;;;;-2.86;100.00;100765.38;5060268;28;20094;-74
2024/02/21 08:10:53;;;;;;;10.95;8.75;;;;;;;-142.02;100.00;61695.09;5062499;28;20496;-74
2024/02/21 08:13:20;;;;;;;8.35;7.65;;;;;;;-2.79;100.00;100754.44;5065342;28;20505;-74
2024/02/21 08:15:46;;;;;;;11.95;10.93;;;;;;;-2.71;100.00;100758.78;5044163;28;20054;-76
2024/02/21 08:18:13;;;;;;;9.20;8.38;;;;;;;-0.99;100.00;100748.53;5035990;28;20043;-75
2024/02/21 08:20:39;;;;;;;7.53;6.82;;;;;;;-1.66;100.00;100739.47;5061956;28;20041;-75
2024/02/21 08:23:05;;;;;;;11.75;10.65;;;;;;;-142.02;100.00;61695.09;5042773;28;20029;-74
2024/02/21 08:25:31;;;;;;;8.20;7.55;;;;;;;-142.02;100.00;61695.09;5044666;28;20044;-75
2024/02/21 08:27:58;;;;;;;8.00;5.93;;;;;;;-142.02;100.00;61695.09;5058074;28;20068;-75
2024/02/21 08:30:25;;;;;;;9.70;8.82;;;;;;;-0.79;100.00;100744.38;5046394;28;20055;-76
2024/02/21 08:32:53;;;;;;;8.15;7.40;;;;;;;-142.02;100.00;61695.09;5008424;28;20466;-77
2024/02/21 08:35:23;;;;;;;10.60;9.80;;;;;;;-142.02;100.00;61695.09;5043071;28;20190;-76
2024/02/21 08:37:50;;;;;;;9.40;8.50;;;;;;;-142.02;100.00;61695.09;5057115;28;20041;-75
2024/02/21 08:40:20;;;;;;;10.50;9.40;;;;;;;-142.02;100.00;61695.09;5031405;28;20117;-73
2024/02/21 08:42:50;;;;;;;8.23;7.53;;;;;;;-142.02;100.00;61695.09;5058762;28;20033;-73
2024/02/21 08:45:16;;;;;;;9.60;8.00;;;;;;;-142.02;100.00;61695.09;5034790;28;20067;-73
2024/02/21 08:47:42;;;;;;;9.23;8.43;;;;;;;-2.04;100.00;100735.69;5043143;28;20345;-74
2024/02/21 08:50:12;;;;;;;10.40;9.18;;;;;;;-2.56;100.00;100757.28;5042502;28;20394;-72
2024/02/21 08:52:38;;;;;;;9.40;8.38;;;;;;;-1.93;100.00;100729.84;5050794;28;20055;-73
2024/02/21 08:55:04;;;;;;;9.27;8.35;;;;;;;-142.02;100.00;61695.09;5051335;28;20526;-73
2024/02/21 08:57:36;;;;;;;10.30;8.93;;;;;;;-1.51;100.00;100744.72;5042440;28;20028;-73
2024/02/21 09:00:09;;;;;;;9.32;7.32;;;;;;;-142.02;100.00;61695.09;5058869;28;20135;-73
2024/02/21 09:02:39;;;;;;;9.18;8.38;;;;;;;-2.29;100.00;100744.81;5060621;28;20040;-73
2024/02/21 09:05:05;;;;;;;12.82;11.68;;;;;;;-142.02;100.00;61695.09;5056773;28;20136;-74
2024/02/21 09:07:32;;;;;;;8.63;7.68;;;;;;;-2.78;100.00;100743.38;5046301;28;20115;-74
2024/02/21 09:09:58;;;;;;;7.18;6.50;;;;;;;-2.78;100.00;100743.38;5048526;28;20439;-73
2024/02/21 09:12:24;;;;;;;8.25;7.45;;;;;;;-3.07;100.00;100739.53;5049210;28;20044;-74
2024/02/21 09:14:50;;;;;;;9.45;8.55;;;;;;;-3.45;100.00;100716.88;5033017;28;20032;-74
2024/02/21 09:17:20;;;;;;;9.55;8.75;;;;;;;-3.45;100.00;100739.84;5051168;28;20072;-73
2024/02/21 09:19:49;;;;;;;8.68;7.85;;;;;;;-3.23;100.00;100744.44;5049681;28;20046;-74
2024/02/21 09:22:15;;;;;;;13.77;10.40;;;;;;;-3.50;100.00;100744.00;5065864;28;20091;-75
2024/02/21 09:24:41;;;;;;;8.57;7.68;;;;;;;-3.14;100.00;100740.31;5030498;28;20043;-75
2024/02/21 09:27:07;;;;;;;8.55;7.85;;;;;;;-3.58;100.00;100712.41;5049362;28;20139;-76
2024/02/21 09:29:34;;;;;;;7.68;6.88;;;;;;;-3.33;100.00;100729.81;5064315;28;20063;-75
2024/02/21 09:32:00;;;;;;;7.85;7.15;;;;;;;-3.54;100.00;100737.16;5044160;28;20025;-74
2024/02/21 09:34:27;;;;;;;9.43;8.32;;;;;;;-3.58;100.00;100735.38;5058744;28;20037;-74
2024/02/21 09:36:53;;;;;;;11.07;10.02;;;;;;;-3.68;100.00;100718.22;5059373;28;20044;-75
2024/02/21 09:39:19;;;;;;;7.93;7.18;;;;;;;-3.61;100.00;100722.56;5049718;28;20127;-76
2024/02/21 09:41:59;;;;;;;8.95;8.15;;;;;;;-3.50;100.00;100715.09;5042253;28;20048;-74
2024/02/21 09:44:26;;;;;;;9.50;8.15;;;;;;;-3.59;100.00;100714.94;5031261;28;20040;-74
2024/02/21 09:46:52;;;;;;;7.30;6.70;;;;;;;-3.46;100.00;100710.03;5030747;28;20057;-74
2024/02/21 09:49:34;;;;;;;8.32;6.88;;;;;;;-3.26;100.00;100723.09;5041131;28;20123;-74
2024/02/21 09:52:06;;;;;;;6.90;6.30;;;;;;;-3.43;100.00;100722.84;5059777;28;20094;-74
2024/02/21 09:54:35;;;;;;;10.77;7.57;;;;;;;-3.16;100.00;100714.75;5060210;28;20067;-75
2024/02/21 09:57:05;;;;;;;9.80;8.88;;;;;;;-3.29;100.00;100728.16;5059554;28;20036;-74
2024/02/21 09:59:32;;;;;;;6.32;5.72;;;;;;;-3.23;100.00;100713.81;5060547;28;20040;-74
2024/02/21 10:02:00;;;;;;;8.27;7.47;;;;;;;-3.42;100.00;100705.84;5060692;28;20283;-74
2024/02/21 10:04:26;;;;;;;8.02;7.22;;;;;;;-3.32;100.00;100707.69;5053990;28;20294;-75
2024/02/21 10:06:53;;;;;;;6.32;5.78;;;;;;;-3.29;100.00;100693.28;5059551;28;20052;-73
2024/02/21 10:09:22;;;;;;;9.07;8.27;;;;;;;-3.19;100.00;100704.50;5038201;28;20080;-74
2024/02/21 10:11:50;;;;;;;9.27;8.27;;;;;;;-3.47;100.00;100699.84;5059589;28;20036;-75
2024/02/21 10:14:17;;;;;;;7.18;6.57;;;;;;;-3.43;100.00;100689.69;5045521;28;20053;-72
2024/02/21 10:16:44;;;;;;;11.13;10.02;;;;;;;-3.37;100.00;100702.53;5032178;28;20289;-73
2024/02/21 10:19:18;;;;;;;8.50;7.20;;;;;;;-3.35;100.00;100703.41;5041289;28;20553;-73
2024/02/21 10:21:45;;;;;;;7.53;6.82;;;;;;;-3.48;100.00;100686.22;5057797;28;20127;-74
2024/02/21 10:24:12;;;;;;;11.63;10.45;;;;;;;-3.45;100.00;100693.03;5022056;28;20029;-73
2024/02/21 10:26:38;;;;;;;10.18;9.35;;;;;;;-3.59;100.00;100656.25;5050137;28;20583;-76
2024/02/21 10:29:04;;;;;;;14.05;10.70;;;;;;;-3.48;100.00;100708.31;5071092;28;20064;-77
2024/02/21 10:31:31;;;;;;;10.25;9.25;;;;;;;-3.54;100.00;100675.91;5072518;28;20036;-77
2024/02/21 10:33:57;;;;;;;7.63;6.93;;;;;;;-3.46;100.00;100704.94;5065384;28;20068;-74
2024/02/21 10:36:27;;;;;;;10.70;9.77;;;;;;;-3.46;100.00;100697.28;5049219;28;20045;-73
2024/02/21 10:38:56;;;;;;;9.00;8.10;;;;;;;-3.29;100.00;100702.63;5044962;28;20043;-74
2024/02/21 10:41:23;;;;;;;7.80;7.13;;;;;;;-3.20;100.00;100698.53;5035833;28;20044;-74
2024/02/21 10:43:54;;;;;;;8.23;7.43;;;;;;;-3.23;100.00;100688.28;5056271;28;20041;-73
2024/02/21 10:46:21;;;;;;;7.53;6.72;;;;;;;-3.17;100.00;100703.66;5062741;28;20102;-73
2024/02/21 10:48:48;;;;;;;9.75;8.85;;;;;;;-3.34;100.00;100697.47;5069481;28;20056;-73
2024/02/21 10:51:16;;;;;;;8.57;7.68;;;;;;;-3.11;100.00;100705.47;5041869;28;20047;-73
2024/02/21 10:54:01;;;;;;;7.38;6.78;;;;;;;-3.29;100.00;100698.41;5072198;28;20536;-72
2024/02/21 10:56:35;;;;;;;8.32;7.60;;;;;;;-3.11;100.00;100702.91;5069171;28;20040;-73
2024/02/21 10:59:04;;;;;;;6.78;6.28;;;;;;;-3.17;100.00;100678.13;5022126;28;20517;-73
2024/02/21 11:01:35;;;;;;;7.45;6.68;;;;;;;-3.15;100.00;100701.16;5045373;28;20043;-74
2024/02/21 11:04:05;;;;;;;5.80;5.38;;;;;;;-3.04;100.00;100688.53;5079449;28;20508;-74
2024/02/21 11:06:32;;;;;;;8.55;7.80;;;;;;;-3.11;100.00;100679.06;5057035;28;20044;-74
2024/02/21 11:09:05;;;;;;;6.93;6.38;;;;;;;-3.34;100.00;100671.94;5026924;28;20086;-74
2024/02/21 11:11:35;;;;;;;7.68;7.07;;;;;;;-3.37;100.00;100684.66;5075789;28;20044;-73
2024/02/21 11:14:06;;;;;;;8.10;7.40;;;;;;;-3.50;100.00;100674.28;5071800;28;20041;-74
2024/02/21 11:16:39;;;;;;;7.43;6.78;;;;;;;-3.42;100.00;100665.03;5085668;28;20057;-73
2024/02/21 11:19:10;;;;;;;7.18;6.53;;;;;;;-3.25;100.00;100671.22;5066369;28;20135;-73
2024/02/21 11:21:37;;;;;;;6.53;6.00;;;;;;;-3.24;100.00;100676.34;5087029;28;20638;-74
2024/02/21 11:24:04;;;;;;;10.13;9.18;;;;;;;-3.36;100.00;100672.75;5065982;28;20089;-76
2024/02/21 11:26:30;;;;;;;5.55;5.05;;;;;;;-3.36;100.00;100677.88;5060067;28;20060;-73